sensor_id;sensor_type;location;lat;lon;timestamp;P1;durP1;ratioP1;P2;durP2;ratioP2
26253;SDS011;53339;51.378;0.094;2022-12-01T00:01:24;42.58;;;20.42;;
26253;SDS011;53339;51.378;0.094;2022-12-01T00:03:51;43.92;;;21.38;;
26253;SDS011;53339;51.378;0.094;2022-12-01T00:06:20;50.85;;;19.10;;
26253;SDS011;53339;51.378;0.094;2022-12-01T00:08:48;48.10;;;22.73;;
26253;SDS011;53339;51.378;0.094;2022-12-01T00:11:38;41.60;;;17.30;;
26253;SDS011;53339;51.378;0.094;2022-12-01T00:14:06;47.97;;;21.52;;
26253;SDS011;53339;51.378;0.094;2022-12-01T00:16:33;52.55;;;23.60;;
26253;SDS011;53339;51.378;0.094;2022-12-01T00:19:01;50.55;;;19.23;;
26253;SDS011;53339;51.378;0.094;2022-12-01T00:21:28;41.05;;;15.75;;
26253;SDS011;53339;51.378;0.094;2022-12-01T00:23:56;47.50;;;20.45;;
26253;SDS011;53339;51.378;0.094;2022-12-01T00:26:25;50.75;;;22.00;;
26253;SDS011;53339;51.378;0.094;2022-12-01T00:28:54;45.35;;;23.23;;
26253;SDS011;53339;51.378;0.094;2022-12-01T00:31:23;44.90;;;16.95;;
26253;SDS011;53339;51.378;0.094;2022-12-01T00:33:51;50.58;;;20.40;;
26253;SDS011;53339;51.378;0.094;2022-12-01T00:36:20;52.40;;;24.48;;
26253;SDS011;53339;51.378;0.094;2022-12-01T00:38:50;48.28;;;18.75;;
26253;SDS011;53339;51.378;0.094;2022-12-01T00:41:22;40.75;;;18.77;;
26253;SDS011;53339;51.378;0.094;2022-12-01T00:43:51;50.78;;;21.67;;
26253;SDS011;53339;51.378;0.094;2022-12-01T00:46:19;45.55;;;18.08;;
26253;SDS011;53339;51.378;0.094;2022-12-01T00:48:48;46.65;;;18.40;;
26253;SDS011;53339;51.378;0.094;2022-12-01T00:51:15;39.15;;;15.63;;
26253;SDS011;53339;51.378;0.094;2022-12-01T00:53:43;45.80;;;22.38;;
26253;SDS011;53339;51.378;0.094;2022-12-01T00:56:11;42.53;;;17.17;;
26253;SDS011;53339;51.378;0.094;2022-12-01T00:58:39;49.88;;;23.35;;
26253;SDS011;53339;51.378;0.094;2022-12-01T01:01:06;41.78;;;16.60;;
26253;SDS011;53339;51.378;0.094;2022-12-01T01:03:34;50.53;;;20.88;;
26253;SDS011;53339;51.378;0.094;2022-12-01T01:06:03;43.75;;;17.95;;
26253;SDS011;53339;51.378;0.094;2022-12-01T01:08:35;43.03;;;20.77;;
26253;SDS011;53339;51.378;0.094;2022-12-01T01:11:03;35.05;;;14.85;;
26253;SDS011;53339;51.378;0.094;2022-12-01T01:13:32;44.67;;;19.52;;
26253;SDS011;53339;51.378;0.094;2022-12-01T01:16:14;48.33;;;17.95;;
26253;SDS011;53339;51.378;0.094;2022-12-01T01:18:46;46.90;;;21.08;;
26253;SDS011;53339;51.378;0.094;2022-12-01T01:21:15;39.08;;;13.77;;
26253;SDS011;53339;51.378;0.094;2022-12-01T01:23:44;42.33;;;20.30;;
26253;SDS011;53339;51.378;0.094;2022-12-01T01:26:29;42.10;;;20.38;;
26253;SDS011;53339;51.378;0.094;2022-12-01T01:28:58;44.97;;;20.90;;
26253;SDS011;53339;51.378;0.094;2022-12-01T01:31:28;39.40;;;18.40;;
26253;SDS011;53339;51.378;0.094;2022-12-01T01:33:56;38.45;;;16.20;;
26253;SDS011;53339;51.378;0.094;2022-12-01T01:36:25;44.28;;;21.48;;
26253;SDS011;53339;51.378;0.094;2022-12-01T01:38:53;48.95;;;22.92;;
26253;SDS011;53339;51.378;0.094;2022-12-01T01:41:21;38.47;;;18.65;;
26253;SDS011;53339;51.378;0.094;2022-12-01T01:43:51;40.05;;;14.45;;
26253;SDS011;53339;51.378;0.094;2022-12-01T01:46:20;43.13;;;15.15;;
26253;SDS011;53339;51.378;0.094;2022-12-01T01:48:54;39.47;;;15.43;;
26253;SDS011;53339;51.378;0.094;2022-12-01T01:51:28;27.25;;;15.55;;
26253;SDS011;53339;51.378;0.094;2022-12-01T01:54:03;42.13;;;19.27;;
26253;SDS011;53339;51.378;0.094;2022-12-01T01:56:34;30.52;;;13.38;;
26253;SDS011;53339;51.378;0.094;2022-12-01T01:59:02;39.60;;;18.17;;
26253;SDS011;53339;51.378;0.094;2022-12-01T02:01:30;32.20;;;15.57;;
26253;SDS011;53339;51.378;0.094;2022-12-01T02:03:58;32.28;;;15.88;;
26253;SDS011;53339;51.378;0.094;2022-12-01T02:06:27;35.60;;;17.48;;
26253;SDS011;53339;51.378;0.094;2022-12-01T02:08:54;36.85;;;13.48;;
26253;SDS011;53339;51.378;0.094;2022-12-01T02:31:46;37.33;;;13.43;;
26253;SDS011;53339;51.378;0.094;2022-12-01T02:34:31;35.08;;;14.20;;
26253;SDS011;53339;51.378;0.094;2022-12-01T02:37:05;38.33;;;18.48;;
26253;SDS011;53339;51.378;0.094;2022-12-01T02:42:44;34.10;;;13.52;;
26253;SDS011;53339;51.378;0.094;2022-12-01T02:48:03;39.05;;;18.75;;
26253;SDS011;53339;51.378;0.094;2022-12-01T02:50:35;37.38;;;17.85;;
26253;SDS011;53339;51.378;0.094;2022-12-01T02:53:06;35.50;;;16.65;;
26253;SDS011;53339;51.378;0.094;2022-12-01T02:58:12;38.97;;;14.65;;
26253;SDS011;53339;51.378;0.094;2022-12-01T03:00:43;30.83;;;11.48;;
26253;SDS011;53339;51.378;0.094;2022-12-01T03:06:02;35.10;;;17.05;;
26253;SDS011;53339;51.378;0.094;2022-12-01T03:08:47;36.97;;;19.95;;
26253;SDS011;53339;51.378;0.094;2022-12-01T03:11:29;29.58;;;16.20;;
26253;SDS011;53339;51.378;0.094;2022-12-01T03:17:20;33.30;;;14.20;;
26253;SDS011;53339;51.378;0.094;2022-12-01T03:19:57;34.40;;;15.27;;
26253;SDS011;53339;51.378;0.094;2022-12-01T03:22:43;33.13;;;12.57;;
26253;SDS011;53339;51.378;0.094;2022-12-01T03:25:16;36.85;;;15.98;;
26253;SDS011;53339;51.378;0.094;2022-12-01T03:27:45;33.80;;;17.33;;
26253;SDS011;53339;51.378;0.094;2022-12-01T03:30:35;26.83;;;11.85;;
26253;SDS011;53339;51.378;0.094;2022-12-01T03:33:06;30.70;;;13.05;;
26253;SDS011;53339;51.378;0.094;2022-12-01T03:35:40;36.42;;;13.90;;
26253;SDS011;53339;51.378;0.094;2022-12-01T03:38:15;35.03;;;13.57;;
26253;SDS011;53339;51.378;0.094;2022-12-01T03:40:48;34.25;;;15.82;;
26253;SDS011;53339;51.378;0.094;2022-12-01T03:43:20;31.35;;;13.35;;
26253;SDS011;53339;51.378;0.094;2022-12-01T03:46:05;39.03;;;18.75;;
26253;SDS011;53339;51.378;0.094;2022-12-01T03:48:43;35.63;;;14.98;;
26253;SDS011;53339;51.378;0.094;2022-12-01T03:51:13;28.48;;;11.15;;
26253;SDS011;53339;51.378;0.094;2022-12-01T03:53:59;27.45;;;11.82;;
26253;SDS011;53339;51.378;0.094;2022-12-01T03:56:36;34.90;;;18.92;;
26253;SDS011;53339;51.378;0.094;2022-12-01T03:59:11;34.53;;;18.77;;
26253;SDS011;53339;51.378;0.094;2022-12-01T04:01:40;27.83;;;10.57;;
26253;SDS011;53339;51.378;0.094;2022-12-01T04:04:09;25.92;;;11.85;;
26253;SDS011;53339;51.378;0.094;2022-12-01T04:06:39;35.33;;;13.80;;
26253;SDS011;53339;51.378;0.094;2022-12-01T04:09:09;31.75;;;12.05;;
26253;SDS011;53339;51.378;0.094;2022-12-01T04:11:36;33.13;;;15.13;;
26253;SDS011;53339;51.378;0.094;2022-12-01T04:14:22;30.98;;;21.63;;
26253;SDS011;53339;51.378;0.094;2022-12-01T04:16:50;34.75;;;17.80;;
26253;SDS011;53339;51.378;0.094;2022-12-01T04:19:18;29.98;;;15.05;;
26253;SDS011;53339;51.378;0.094;2022-12-01T04:21:45;26.35;;;11.63;;
26253;SDS011;53339;51.378;0.094;2022-12-01T04:24:13;24.20;;;13.70;;
26253;SDS011;53339;51.378;0.094;2022-12-01T04:26:41;32.03;;;13.18;;
26253;SDS011;53339;51.378;0.094;2022-12-01T04:29:09;38.70;;;12.38;;
26253;SDS011;53339;51.378;0.094;2022-12-01T04:31:37;25.08;;;11.15;;
26253;SDS011;53339;51.378;0.094;2022-12-01T04:34:05;22.17;;;13.82;;
26253;SDS011;53339;51.378;0.094;2022-12-01T04:36:33;28.90;;;12.05;;
26253;SDS011;53339;51.378;0.094;2022-12-01T04:39:01;32.60;;;17.35;;
26253;SDS011;53339;51.378;0.094;2022-12-01T04:41:29;24.35;;;13.10;;
26253;SDS011;53339;51.378;0.094;2022-12-01T04:43:57;24.88;;;15.05;;
26253;SDS011;53339;51.378;0.094;2022-12-01T04:46:25;31.45;;;12.95;;
26253;SDS011;53339;51.378;0.094;2022-12-01T04:48:52;34.75;;;16.33;;
26253;SDS011;53339;51.378;0.094;2022-12-01T04:51:20;32.42;;;14.35;;
26253;SDS011;53339;51.378;0.094;2022-12-01T04:53:48;21.92;;;9.90;;
26253;SDS011;53339;51.378;0.094;2022-12-01T04:56:16;30.60;;;15.50;;
26253;SDS011;53339;51.378;0.094;2022-12-01T04:58:44;24.90;;;10.02;;
26253;SDS011;53339;51.378;0.094;2022-12-01T05:01:12;25.08;;;10.50;;
26253;SDS011;53339;51.378;0.094;2022-12-01T05:03:42;28.10;;;10.65;;
26253;SDS011;53339;51.378;0.094;2022-12-01T05:06:13;24.90;;;14.18;;
26253;SDS011;53339;51.378;0.094;2022-12-01T05:08:45;27.45;;;14.85;;
26253;SDS011;53339;51.378;0.094;2022-12-01T05:11:14;20.27;;;8.88;;
26253;SDS011;53339;51.378;0.094;2022-12-01T05:13:43;22.33;;;9.13;;
26253;SDS011;53339;51.378;0.094;2022-12-01T05:16:13;26.30;;;16.10;;
26253;SDS011;53339;51.378;0.094;2022-12-01T05:18:45;30.55;;;15.57;;
26253;SDS011;53339;51.378;0.094;2022-12-01T05:21:14;21.67;;;9.52;;
26253;SDS011;53339;51.378;0.094;2022-12-01T05:23:42;18.50;;;7.53;;
26253;SDS011;53339;51.378;0.094;2022-12-01T05:26:11;23.92;;;10.88;;
26253;SDS011;53339;51.378;0.094;2022-12-01T05:28:38;28.30;;;10.07;;
26253;SDS011;53339;51.378;0.094;2022-12-01T05:31:06;22.75;;;12.77;;
26253;SDS011;53339;51.378;0.094;2022-12-01T05:33:34;23.27;;;9.95;;
26253;SDS011;53339;51.378;0.094;2022-12-01T05:36:02;20.35;;;9.38;;
26253;SDS011;53339;51.378;0.094;2022-12-01T05:38:29;26.17;;;10.38;;
26253;SDS011;53339;51.378;0.094;2022-12-01T05:40:57;25.27;;;10.80;;
26253;SDS011;53339;51.378;0.094;2022-12-01T05:43:25;22.40;;;9.63;;
26253;SDS011;53339;51.378;0.094;2022-12-01T05:45:56;30.30;;;11.57;;
26253;SDS011;53339;51.378;0.094;2022-12-01T05:48:24;26.95;;;11.07;;
26253;SDS011;53339;51.378;0.094;2022-12-01T05:50:52;20.45;;;8.85;;
26253;SDS011;53339;51.378;0.094;2022-12-01T05:53:19;21.38;;;10.68;;
26253;SDS011;53339;51.378;0.094;2022-12-01T05:55:51;28.60;;;14.98;;
26253;SDS011;53339;51.378;0.094;2022-12-01T05:58:20;30.05;;;13.75;;
26253;SDS011;53339;51.378;0.094;2022-12-01T06:00:48;19.00;;;7.43;;
26253;SDS011;53339;51.378;0.094;2022-12-01T06:03:16;17.25;;;8.07;;
26253;SDS011;53339;51.378;0.094;2022-12-01T06:05:43;27.67;;;13.25;;
26253;SDS011;53339;51.378;0.094;2022-12-01T06:08:11;26.92;;;12.65;;
26253;SDS011;53339;51.378;0.094;2022-12-01T06:10:38;20.30;;;7.78;;
26253;SDS011;53339;51.378;0.094;2022-12-01T06:13:06;19.77;;;8.70;;
26253;SDS011;53339;51.378;0.094;2022-12-01T06:15:34;21.83;;;12.23;;
26253;SDS011;53339;51.378;0.094;2022-12-01T06:18:01;25.88;;;10.48;;
26253;SDS011;53339;51.378;0.094;2022-12-01T06:20:29;17.27;;;9.02;;
26253;SDS011;53339;51.378;0.094;2022-12-01T06:22:56;20.15;;;9.07;;
26253;SDS011;53339;51.378;0.094;2022-12-01T06:25:25;27.83;;;14.48;;
26253;SDS011;53339;51.378;0.094;2022-12-01T06:27:54;24.45;;;10.63;;
26253;SDS011;53339;51.378;0.094;2022-12-01T06:30:23;28.83;;;9.82;;
26253;SDS011;53339;51.378;0.094;2022-12-01T06:32:51;21.60;;;13.35;;
26253;SDS011;53339;51.378;0.094;2022-12-01T06:35:19;23.75;;;9.70;;
26253;SDS011;53339;51.378;0.094;2022-12-01T06:37:46;29.02;;;15.20;;
26253;SDS011;53339;51.378;0.094;2022-12-01T06:40:14;18.42;;;8.52;;
26253;SDS011;53339;51.378;0.094;2022-12-01T06:42:42;21.02;;;10.18;;
26253;SDS011;53339;51.378;0.094;2022-12-01T06:45:10;24.20;;;14.63;;
26253;SDS011;53339;51.378;0.094;2022-12-01T06:47:37;27.20;;;14.48;;
26253;SDS011;53339;51.378;0.094;2022-12-01T06:50:05;23.27;;;12.38;;
26253;SDS011;53339;51.378;0.094;2022-12-01T06:52:35;21.42;;;8.38;;
26253;SDS011;53339;51.378;0.094;2022-12-01T06:55:03;26.67;;;15.38;;
26253;SDS011;53339;51.378;0.094;2022-12-01T06:57:32;27.38;;;10.45;;
26253;SDS011;53339;51.378;0.094;2022-12-01T06:59:59;23.58;;;10.63;;
26253;SDS011;53339;51.378;0.094;2022-12-01T07:02:26;21.13;;;12.00;;
26253;SDS011;53339;51.378;0.094;2022-12-01T07:04:54;28.65;;;11.80;;
26253;SDS011;53339;51.378;0.094;2022-12-01T07:07:21;24.90;;;10.40;;
26253;SDS011;53339;51.378;0.094;2022-12-01T07:09:50;26.65;;;13.50;;
26253;SDS011;53339;51.378;0.094;2022-12-01T07:12:17;17.25;;;11.65;;
26253;SDS011;53339;51.378;0.094;2022-12-01T07:14:45;23.38;;;12.75;;
26253;SDS011;53339;51.378;0.094;2022-12-01T07:17:12;25.55;;;9.02;;
26253;SDS011;53339;51.378;0.094;2022-12-01T07:19:40;20.45;;;8.13;;
26253;SDS011;53339;51.378;0.094;2022-12-01T07:22:07;20.42;;;9.50;;
26253;SDS011;53339;51.378;0.094;2022-12-01T07:24:35;27.35;;;12.70;;
26253;SDS011;53339;51.378;0.094;2022-12-01T07:27:02;25.58;;;14.13;;
26253;SDS011;53339;51.378;0.094;2022-12-01T07:29:30;22.73;;;8.95;;
26253;SDS011;53339;51.378;0.094;2022-12-01T07:31:57;25.95;;;13.27;;
26253;SDS011;53339;51.378;0.094;2022-12-01T07:34:25;19.98;;;11.15;;
26253;SDS011;53339;51.378;0.094;2022-12-01T07:36:52;24.75;;;9.85;;
26253;SDS011;53339;51.378;0.094;2022-12-01T07:39:20;25.70;;;10.63;;
26253;SDS011;53339;51.378;0.094;2022-12-01T07:41:48;18.65;;;8.13;;
26253;SDS011;53339;51.378;0.094;2022-12-01T07:44:15;15.65;;;7.78;;
26253;SDS011;53339;51.378;0.094;2022-12-01T07:46:43;24.52;;;10.82;;
26253;SDS011;53339;51.378;0.094;2022-12-01T07:49:10;22.50;;;10.40;;
26253;SDS011;53339;51.378;0.094;2022-12-01T07:51:40;23.33;;;12.45;;
26253;SDS011;53339;51.378;0.094;2022-12-01T07:54:08;22.10;;;9.65;;
26253;SDS011;53339;51.378;0.094;2022-12-01T07:56:40;25.85;;;10.32;;
26253;SDS011;53339;51.378;0.094;2022-12-01T07:59:07;30.50;;;11.50;;
26253;SDS011;53339;51.378;0.094;2022-12-01T08:01:35;27.13;;;12.20;;
26253;SDS011;53339;51.378;0.094;2022-12-01T08:04:07;25.15;;;10.82;;
26253;SDS011;53339;51.378;0.094;2022-12-01T08:06:34;26.45;;;15.23;;
26253;SDS011;53339;51.378;0.094;2022-12-01T08:09:02;29.05;;;12.40;;
26253;SDS011;53339;51.378;0.094;2022-12-01T08:11:29;23.10;;;9.00;;
26253;SDS011;53339;51.378;0.094;2022-12-01T08:13:57;21.92;;;13.70;;
26253;SDS011;53339;51.378;0.094;2022-12-01T08:16:24;27.80;;;10.38;;
26253;SDS011;53339;51.378;0.094;2022-12-01T08:18:52;24.05;;;10.07;;
26253;SDS011;53339;51.378;0.094;2022-12-01T08:21:20;21.35;;;8.57;;
26253;SDS011;53339;51.378;0.094;2022-12-01T08:23:55;25.08;;;10.77;;
26253;SDS011;53339;51.378;0.094;2022-12-01T08:26:24;25.48;;;13.75;;
26253;SDS011;53339;51.378;0.094;2022-12-01T08:28:53;29.00;;;12.52;;
26253;SDS011;53339;51.378;0.094;2022-12-01T08:31:28;19.20;;;10.77;;
26253;SDS011;53339;51.378;0.094;2022-12-01T08:33:57;16.45;;;7.13;;
26253;SDS011;53339;51.378;0.094;2022-12-01T08:36:25;36.47;;;16.98;;
26253;SDS011;53339;51.378;0.094;2022-12-01T08:38:53;32.35;;;15.57;;
26253;SDS011;53339;51.378;0.094;2022-12-01T08:41:22;23.88;;;13.90;;
26253;SDS011;53339;51.378;0.094;2022-12-01T08:43:50;25.25;;;13.55;;
26253;SDS011;53339;51.378;0.094;2022-12-01T08:46:30;29.73;;;12.05;;
26253;SDS011;53339;51.378;0.094;2022-12-01T08:49:00;33.72;;;12.52;;
26253;SDS011;53339;51.378;0.094;2022-12-01T08:51:28;22.90;;;12.68;;
26253;SDS011;53339;51.378;0.094;2022-12-01T08:53:57;23.23;;;10.95;;
26253;SDS011;53339;51.378;0.094;2022-12-01T08:56:34;30.20;;;17.70;;
26253;SDS011;53339;51.378;0.094;2022-12-01T08:59:04;35.35;;;13.82;;
26253;SDS011;53339;51.378;0.094;2022-12-01T09:01:32;22.17;;;11.68;;
26253;SDS011;53339;51.378;0.094;2022-12-01T09:04:00;22.63;;;10.63;;
26253;SDS011;53339;51.378;0.094;2022-12-01T09:06:33;33.83;;;17.25;;
26253;SDS011;53339;51.378;0.094;2022-12-01T09:09:04;31.45;;;13.52;;
26253;SDS011;53339;51.378;0.094;2022-12-01T09:11:32;19.85;;;9.13;;
26253;SDS011;53339;51.378;0.094;2022-12-01T09:14:00;32.92;;;17.13;;
26253;SDS011;53339;51.378;0.094;2022-12-01T09:16:27;31.02;;;13.85;;
26253;SDS011;53339;51.378;0.094;2022-12-01T09:18:55;37.50;;;17.17;;
26253;SDS011;53339;51.378;0.094;2022-12-01T09:21:24;22.42;;;13.82;;
26253;SDS011;53339;51.378;0.094;2022-12-01T09:23:54;25.05;;;11.70;;
26253;SDS011;53339;51.378;0.094;2022-12-01T09:26:22;30.60;;;17.17;;
26253;SDS011;53339;51.378;0.094;2022-12-01T09:28:54;30.75;;;14.20;;
26253;SDS011;53339;51.378;0.094;2022-12-01T09:31:23;29.25;;;15.55;;
26253;SDS011;53339;51.378;0.094;2022-12-01T09:33:55;29.15;;;10.80;;
26253;SDS011;53339;51.378;0.094;2022-12-01T09:36:24;36.08;;;13.50;;
26253;SDS011;53339;51.378;0.094;2022-12-01T09:38:52;32.97;;;13.65;;
26253;SDS011;53339;51.378;0.094;2022-12-01T09:41:22;26.35;;;14.55;;
26253;SDS011;53339;51.378;0.094;2022-12-01T09:49:48;28.42;;;14.48;;
26253;SDS011;53339;51.378;0.094;2022-12-01T09:52:21;23.52;;;8.50;;
26253;SDS011;53339;51.378;0.094;2022-12-01T09:54:51;37.08;;;18.02;;
26253;SDS011;53339;51.378;0.094;2022-12-01T09:57:27;30.05;;;13.15;;
26253;SDS011;53339;51.378;0.094;2022-12-01T09:59:58;22.27;;;10.18;;
26253;SDS011;53339;51.378;0.094;2022-12-01T10:02:42;21.33;;;12.55;;
26253;SDS011;53339;51.378;0.094;2022-12-01T10:05:18;35.78;;;16.80;;
26253;SDS011;53339;51.378;0.094;2022-12-01T10:13:19;27.05;;;12.50;;
26253;SDS011;53339;51.378;0.094;2022-12-01T10:31:30;22.88;;;9.70;;
26253;SDS011;53339;51.378;0.094;2022-12-01T10:34:06;26.00;;;11.57;;
26253;SDS011;53339;51.378;0.094;2022-12-01T10:36:47;30.98;;;12.10;;
26253;SDS011;53339;51.378;0.094;2022-12-01T10:42:35;27.65;;;10.70;;
26253;SDS011;53339;51.378;0.094;2022-12-01T10:45:42;26.42;;;13.52;;
26253;SDS011;53339;51.378;0.094;2022-12-01T10:48:07;25.95;;;9.25;;
26253;SDS011;53339;51.378;0.094;2022-12-01T10:50:48;18.05;;;8.25;;
26253;SDS011;53339;51.378;0.094;2022-12-01T10:58:27;19.77;;;9.98;;
26253;SDS011;53339;51.378;0.094;2022-12-01T11:00:58;22.90;;;11.85;;
26253;SDS011;53339;51.378;0.094;2022-12-01T11:03:33;18.20;;;8.43;;
26253;SDS011;53339;51.378;0.094;2022-12-01T11:06:03;21.35;;;8.93;;
26253;SDS011;53339;51.378;0.094;2022-12-01T11:08:43;23.50;;;11.23;;
26253;SDS011;53339;51.378;0.094;2022-12-01T11:11:52;17.05;;;9.27;;
26253;SDS011;53339;51.378;0.094;2022-12-01T11:14:16;20.02;;;10.63;;
26253;SDS011;53339;51.378;0.094;2022-12-01T11:16:47;18.63;;;8.35;;
26253;SDS011;53339;51.378;0.094;2022-12-01T11:21:50;13.60;;;7.82;;
26253;SDS011;53339;51.378;0.094;2022-12-01T11:24:38;19.27;;;11.52;;
26253;SDS011;53339;51.378;0.094;2022-12-01T11:27:14;18.35;;;11.02;;
26253;SDS011;53339;51.378;0.094;2022-12-01T11:29:53;21.33;;;9.73;;
26253;SDS011;53339;51.378;0.094;2022-12-01T11:32:27;17.98;;;9.75;;
26253;SDS011;53339;51.378;0.094;2022-12-01T11:34:57;25.92;;;12.98;;
26253;SDS011;53339;51.378;0.094;2022-12-01T11:37:35;16.95;;;7.10;;
26253;SDS011;53339;51.378;0.094;2022-12-01T11:40:21;21.27;;;13.75;;
26253;SDS011;53339;51.378;0.094;2022-12-01T11:42:52;12.13;;;6.20;;
26253;SDS011;53339;51.378;0.094;2022-12-01T11:45:30;19.90;;;8.18;;
26253;SDS011;53339;51.378;0.094;2022-12-01T11:48:17;14.85;;;8.25;;
26253;SDS011;53339;51.378;0.094;2022-12-01T11:51:04;15.23;;;5.82;;
26253;SDS011;53339;51.378;0.094;2022-12-01T11:56:42;15.60;;;9.32;;
26253;SDS011;53339;51.378;0.094;2022-12-01T11:59:12;17.80;;;7.70;;
26253;SDS011;53339;51.378;0.094;2022-12-01T12:21:32;14.15;;;8.88;;
26253;SDS011;53339;51.378;0.094;2022-12-01T12:26:59;12.43;;;5.68;;
26253;SDS011;53339;51.378;0.094;2022-12-01T12:30:18;12.48;;;5.45;;
26253;SDS011;53339;51.378;0.094;2022-12-01T12:35:59;15.68;;;6.15;;
26253;SDS011;53339;51.378;0.094;2022-12-01T12:38:44;14.65;;;7.80;;
26253;SDS011;53339;51.378;0.094;2022-12-01T12:41:34;15.93;;;8.10;;
26253;SDS011;53339;51.378;0.094;2022-12-01T12:46:51;11.95;;;7.55;;
26253;SDS011;53339;51.378;0.094;2022-12-01T12:52:17;17.65;;;7.22;;
26253;SDS011;53339;51.378;0.094;2022-12-01T12:54:51;10.45;;;5.43;;
26253;SDS011;53339;51.378;0.094;2022-12-01T12:57:33;10.90;;;7.18;;
26253;SDS011;53339;51.378;0.094;2022-12-01T13:00:03;8.68;;;4.00;;
26253;SDS011;53339;51.378;0.094;2022-12-01T13:02:42;8.30;;;3.67;;
26253;SDS011;53339;51.378;0.094;2022-12-01T13:05:28;6.75;;;2.95;;
26253;SDS011;53339;51.378;0.094;2022-12-01T13:08:22;8.35;;;3.67;;
26253;SDS011;53339;51.378;0.094;2022-12-01T13:10:56;8.55;;;3.95;;
26253;SDS011;53339;51.378;0.094;2022-12-01T13:14:00;8.30;;;6.28;;
26253;SDS011;53339;51.378;0.094;2022-12-01T13:16:45;8.32;;;5.85;;
26253;SDS011;53339;51.378;0.094;2022-12-01T13:19:15;8.95;;;3.92;;
26253;SDS011;53339;51.378;0.094;2022-12-01T13:21:58;7.13;;;3.65;;
26253;SDS011;53339;51.378;0.094;2022-12-01T13:24:27;8.93;;;6.10;;
26253;SDS011;53339;51.378;0.094;2022-12-01T13:27:02;11.00;;;3.88;;
26253;SDS011;53339;51.378;0.094;2022-12-01T13:29:43;9.05;;;3.63;;
26253;SDS011;53339;51.378;0.094;2022-12-01T13:32:32;9.18;;;3.88;;
26253;SDS011;53339;51.378;0.094;2022-12-01T13:35:49;9.90;;;3.92;;
26253;SDS011;53339;51.378;0.094;2022-12-01T13:41:08;8.05;;;3.58;;
26253;SDS011;53339;51.378;0.094;2022-12-01T13:43:49;10.45;;;7.35;;
26253;SDS011;53339;51.378;0.094;2022-12-01T13:46:26;8.48;;;4.68;;
26253;SDS011;53339;51.378;0.094;2022-12-01T13:48:59;9.43;;;6.28;;
26253;SDS011;53339;51.378;0.094;2022-12-01T13:52:14;10.35;;;4.78;;
26253;SDS011;53339;51.378;0.094;2022-12-01T13:54:35;7.97;;;3.05;;
26253;SDS011;53339;51.378;0.094;2022-12-01T13:57:04;10.30;;;3.40;;
26253;SDS011;53339;51.378;0.094;2022-12-01T14:02:37;9.05;;;3.40;;
26253;SDS011;53339;51.378;0.094;2022-12-01T14:07:49;8.32;;;3.83;;
26253;SDS011;53339;51.378;0.094;2022-12-01T14:10:30;10.43;;;6.15;;
26253;SDS011;53339;51.378;0.094;2022-12-01T14:13:01;10.65;;;6.43;;
26253;SDS011;53339;51.378;0.094;2022-12-01T14:15:38;12.52;;;4.15;;
26253;SDS011;53339;51.378;0.094;2022-12-01T14:21:05;10.75;;;5.38;;
26253;SDS011;53339;51.378;0.094;2022-12-01T14:23:36;9.52;;;5.85;;
26253;SDS011;53339;51.378;0.094;2022-12-01T14:26:18;10.98;;;4.93;;
26253;SDS011;53339;51.378;0.094;2022-12-01T14:29:20;10.32;;;3.95;;
26253;SDS011;53339;51.378;0.094;2022-12-01T14:34:23;13.35;;;5.53;;
26253;SDS011;53339;51.378;0.094;2022-12-01T14:37:12;12.32;;;5.43;;
26253;SDS011;53339;51.378;0.094;2022-12-01T14:39:46;13.80;;;5.45;;
26253;SDS011;53339;51.378;0.094;2022-12-01T14:42:27;8.50;;;5.00;;
26253;SDS011;53339;51.378;0.094;2022-12-01T14:45:22;8.75;;;3.83;;
26253;SDS011;53339;51.378;0.094;2022-12-01T14:48:13;12.75;;;4.80;;
26253;SDS011;53339;51.378;0.094;2022-12-01T14:50:48;13.38;;;8.57;;
26253;SDS011;53339;51.378;0.094;2022-12-01T14:53:21;10.70;;;4.43;;
26253;SDS011;53339;51.378;0.094;2022-12-01T14:56:01;10.20;;;5.00;;
26253;SDS011;53339;51.378;0.094;2022-12-01T14:58:37;12.40;;;7.07;;
26253;SDS011;53339;51.378;0.094;2022-12-01T15:01:06;12.30;;;6.53;;
26253;SDS011;53339;51.378;0.094;2022-12-01T15:06:09;14.45;;;9.23;;
26253;SDS011;53339;51.378;0.094;2022-12-01T15:08:44;15.50;;;5.72;;
26253;SDS011;53339;51.378;0.094;2022-12-01T15:11:32;10.18;;;4.55;;
26253;SDS011;53339;51.378;0.094;2022-12-01T15:14:01;11.32;;;4.60;;
26253;SDS011;53339;51.378;0.094;2022-12-01T15:16:29;13.77;;;5.93;;
26253;SDS011;53339;51.378;0.094;2022-12-01T15:19:01;7.30;;;3.67;;
26253;SDS011;53339;51.378;0.094;2022-12-01T15:21:47;12.30;;;4.53;;
26253;SDS011;53339;51.378;0.094;2022-12-01T15:24:21;14.35;;;9.10;;
26253;SDS011;53339;51.378;0.094;2022-12-01T15:26:52;15.05;;;10.85;;
26253;SDS011;53339;51.378;0.094;2022-12-01T15:29:32;10.75;;;6.53;;
26253;SDS011;53339;51.378;0.094;2022-12-01T15:32:05;17.17;;;7.55;;
26253;SDS011;53339;51.378;0.094;2022-12-01T15:34:36;12.05;;;8.80;;
26253;SDS011;53339;51.378;0.094;2022-12-01T15:37:12;14.23;;;7.10;;
26253;SDS011;53339;51.378;0.094;2022-12-01T15:39:45;10.30;;;6.88;;
26253;SDS011;53339;51.378;0.094;2022-12-01T15:42:23;14.52;;;7.25;;
26253;SDS011;53339;51.378;0.094;2022-12-01T15:44:58;17.05;;;6.57;;
26253;SDS011;53339;51.378;0.094;2022-12-01T15:47:29;14.27;;;9.27;;
26253;SDS011;53339;51.378;0.094;2022-12-01T15:50:02;13.48;;;5.85;;
26253;SDS011;53339;51.378;0.094;2022-12-01T15:52:31;11.75;;;7.72;;
26253;SDS011;53339;51.378;0.094;2022-12-01T15:55:17;15.65;;;7.50;;
26253;SDS011;53339;51.378;0.094;2022-12-01T15:57:55;14.55;;;5.65;;
26253;SDS011;53339;51.378;0.094;2022-12-01T16:00:24;13.68;;;5.85;;
26253;SDS011;53339;51.378;0.094;2022-12-01T16:02:56;14.95;;;12.95;;
26253;SDS011;53339;51.378;0.094;2022-12-01T16:05:29;11.20;;;5.35;;
26253;SDS011;53339;51.378;0.094;2022-12-01T16:08:12;13.00;;;6.13;;
26253;SDS011;53339;51.378;0.094;2022-12-01T16:10:44;14.65;;;9.40;;
26253;SDS011;53339;51.378;0.094;2022-12-01T16:16:18;13.93;;;7.53;;
26253;SDS011;53339;51.378;0.094;2022-12-01T16:19:18;13.10;;;5.65;;
26253;SDS011;53339;51.378;0.094;2022-12-01T16:22:00;14.30;;;6.03;;
26253;SDS011;53339;51.378;0.094;2022-12-01T16:27:23;16.77;;;10.43;;
26253;SDS011;53339;51.378;0.094;2022-12-01T16:29:59;13.75;;;9.02;;
26253;SDS011;53339;51.378;0.094;2022-12-01T16:32:31;13.73;;;7.20;;
26253;SDS011;53339;51.378;0.094;2022-12-01T16:37:52;13.35;;;8.43;;
26253;SDS011;53339;51.378;0.094;2022-12-01T16:40:20;14.95;;;9.73;;
26253;SDS011;53339;51.378;0.094;2022-12-01T16:42:48;13.55;;;9.65;;
26253;SDS011;53339;51.378;0.094;2022-12-01T16:45:16;15.05;;;7.15;;
26253;SDS011;53339;51.378;0.094;2022-12-01T16:47:45;16.95;;;7.97;;
26253;SDS011;53339;51.378;0.094;2022-12-01T16:50:15;24.35;;;9.95;;
26253;SDS011;53339;51.378;0.094;2022-12-01T16:52:45;16.08;;;9.20;;
26253;SDS011;53339;51.378;0.094;2022-12-01T16:55:36;15.20;;;9.57;;
26253;SDS011;53339;51.378;0.094;2022-12-01T16:58:07;21.73;;;9.77;;
26253;SDS011;53339;51.378;0.094;2022-12-01T17:00:35;23.63;;;12.15;;
26253;SDS011;53339;51.378;0.094;2022-12-01T17:03:03;20.40;;;12.20;;
26253;SDS011;53339;51.378;0.094;2022-12-01T17:05:31;17.70;;;7.57;;
26253;SDS011;53339;51.378;0.094;2022-12-01T17:07:59;21.92;;;13.48;;
26253;SDS011;53339;51.378;0.094;2022-12-01T17:10:27;16.38;;;7.07;;
26253;SDS011;53339;51.378;0.094;2022-12-01T17:12:54;22.63;;;14.77;;